< < Back
Terminal Aerodrome Forecast


Current Version              Previous Versions:   1  2  3  4  5  6  7  8  9  

Terminal Aerodrome Forecast

452
FTUS44 KOHX 262300
TAFCSV
TAF
KCSV 262320Z 2700/2724 33006KT P6SM BKN040
     FM270300 35005KT P6SM OVC020
     FM271500 01006KT P6SM OVC030=



Latest METAR

110
SAUS70 KWBC 270400 RRB
MTRCSV
METAR KCSV 270353Z AUTO 33007G14KT 10SM BKN037 OVC048 M02/M07 A3018 RMK
AO2 SLP235 T10171067


USA.gov is the U.S. government's official web portal to all federal, state and local government web resources and services.